Time;durP1;ratioP1;P1;durP2;ratioP2;P2;SDS_P1;SDS_P2;PMS_P1;PMS_P2;Temp;Humidity;BMP_temperature;BMP_pressure;BME280_temperature;BME280_humidity;BME280_pressure;Samples;Min_cycle;Max_cycle;Signal;HPM_P1;HPM_P2
2021/10/31 00:01:57;;;;;;;36.75;19.15;;;;;;;3.20;87.45;101578.05;1778719;80;21334;-75
2021/10/31 00:05:03;;;;;;;32.42;19.42;;;;;;;3.18;87.31;101577.75;1779325;80;21291;-75
2021/10/31 00:08:08;;;;;;;36.70;18.87;;;;;;;3.14;87.31;101578.42;1779257;80;21184;-75
2021/10/31 00:11:13;;;;;;;30.20;18.07;;;;;;;3.11;87.28;101583.18;1779195;80;21282;-75
2021/10/31 00:14:19;;;;;;;32.48;18.15;;;;;;;3.05;87.34;101574.46;1779234;80;21347;-75
2021/10/31 00:17:24;;;;;;;33.88;18.17;;;;;;;3.02;87.52;101576.52;1777912;80;21387;-75
2021/10/31 00:20:30;;;;;;;33.80;20.20;;;;;;;2.99;87.68;101569.94;1768633;80;21319;-75
2021/10/31 00:23:36;;;;;;;34.95;19.80;;;;;;;2.97;87.74;101574.59;1762612;81;21339;-75
2021/10/31 00:26:42;;;;;;;42.33;18.67;;;;;;;2.94;87.83;101568.02;1763958;81;21808;-75
2021/10/31 00:29:47;;;;;;;33.20;19.50;;;;;;;2.90;87.96;101565.98;1764023;81;21323;-75
2021/10/31 00:32:52;;;;;;;38.60;20.52;;;;;;;2.87;88.04;101567.55;1762830;81;21386;-75
2021/10/31 00:35:58;;;;;;;38.08;18.52;;;;;;;2.85;88.10;101567.23;1762668;81;21315;-75
2021/10/31 00:39:04;;;;;;;36.48;18.67;;;;;;;2.83;88.14;101565.13;1762631;81;21296;-75
2021/10/31 00:42:09;;;;;;;40.12;20.68;;;;;;;2.79;88.19;101561.25;1762466;81;21197;-75
2021/10/31 00:45:14;;;;;;;36.28;19.40;;;;;;;2.77;88.44;101567.22;1764056;81;21523;-75
2021/10/31 00:48:20;;;;;;;38.50;18.77;;;;;;;2.78;88.50;101560.88;1762556;81;21343;-75
2021/10/31 00:51:26;;;;;;;35.78;19.87;;;;;;;2.77;88.44;101563.66;1763889;81;21839;-75
2021/10/31 00:54:31;;;;;;;35.30;21.95;;;;;;;2.75;88.32;101557.00;1762742;81;21378;-75
2021/10/31 00:57:36;;;;;;;41.80;20.80;;;;;;;2.71;88.29;101558.16;1763931;81;21740;-75
2021/10/31 01:00:41;;;;;;;30.10;18.10;;;;;;;2.69;88.28;101556.05;1763520;81;21552;-75
2021/10/31 01:03:46;;;;;;;41.35;22.48;;;;;;;2.67;88.32;101555.25;1763345;81;21307;-75
2021/10/31 01:07:13;;;;;;;37.83;20.77;;;;;;;2.65;88.53;101553.62;1762935;81;21181;-75
2021/10/31 01:10:44;;;;;;;38.08;19.35;;;;;;;2.65;88.70;101549.58;1764007;81;21859;-75
2021/10/31 01:14:27;;;;;;;32.30;18.75;;;;;;;2.64;88.86;101551.41;1764407;81;21276;-75
2021/10/31 01:17:57;;;;;;;37.45;19.98;;;;;;;2.64;88.84;101538.39;1763383;81;21288;-75
2021/10/31 01:21:44;;;;;;;37.45;21.37;;;;;;;2.61;88.76;101535.87;1763382;81;21201;-75
2021/10/31 01:25:35;;;;;;;38.35;21.68;;;;;;;2.58;88.71;101536.91;1762279;81;21264;-75
2021/10/31 01:29:27;;;;;;;35.83;18.92;;;;;;;2.52;88.65;101540.87;1763815;81;21233;-76
2021/10/31 01:33:15;;;;;;;43.13;21.75;;;;;;;2.48;88.54;101539.31;1763640;81;21668;-75
2021/10/31 01:36:31;;;;;;;41.37;22.58;;;;;;;2.41;88.38;101531.22;1757093;81;21307;-76
2021/10/31 01:39:49;;;;;;;38.73;22.20;;;;;;;2.33;88.17;101529.95;1747683;81;21649;-76
2021/10/31 01:43:03;;;;;;;35.28;20.45;;;;;;;2.29;88.24;101534.66;1753362;81;21197;-76
2021/10/31 01:46:17;;;;;;;39.98;22.55;;;;;;;2.21;87.99;101531.09;1763935;81;21296;-76
2021/10/31 01:49:51;;;;;;;40.05;21.10;;;;;;;2.13;87.88;101537.42;1763984;81;21318;-76
2021/10/31 01:53:01;;;;;;;39.95;21.17;;;;;;;2.06;88.00;101536.04;1764193;81;21240;-76
2021/10/31 01:56:11;;;;;;;40.25;22.85;;;;;;;2.01;88.39;101539.50;1762789;81;21725;-76
2021/10/31 01:59:20;;;;;;;36.35;17.42;;;;;;;1.98;88.84;101538.35;1764019;81;21925;-76
2021/10/31 02:02:26;;;;;;;43.78;22.75;;;;;;;1.93;89.06;101531.87;1764004;81;21288;-76
2021/10/31 02:05:34;;;;;;;39.90;21.93;;;;;;;1.89;89.24;101537.06;1762613;81;21300;-76
2021/10/31 02:08:40;;;;;;;35.68;23.22;;;;;;;1.88;89.39;101530.39;1764108;81;21283;-76
2021/10/31 02:11:47;;;;;;;38.10;20.92;;;;;;;1.85;89.61;101533.28;1762507;81;21240;-76
2021/10/31 02:14:52;;;;;;;39.78;21.68;;;;;;;1.82;89.57;101526.23;1763058;81;21930;-76
2021/10/31 02:18:01;;;;;;;42.78;20.97;;;;;;;1.76;89.30;101522.55;1763981;81;21827;-76
2021/10/31 02:21:06;;;;;;;45.33;22.15;;;;;;;1.73;89.59;101522.72;1764543;80;21847;-76
2021/10/31 02:24:14;;;;;;;47.20;21.23;;;;;;;1.72;90.30;101516.95;1783247;80;21637;-75
2021/10/31 02:27:24;;;;;;;37.10;20.62;;;;;;;1.76;91.21;101520.72;1785352;80;21802;-76
2021/10/31 02:30:28;;;;;;;;;;;;;;;1.82;91.78;101517.27;1787093;80;21731;-76
2021/10/31 02:33:34;;;;;;;37.73;20.05;;;;;;;1.90;92.35;101513.64;1783394;80;20265;-75
2021/10/31 02:36:39;;;;;;;43.85;19.65;;;;;;;1.99;93.04;101511.75;1783155;80;21192;-76
2021/10/31 02:39:47;;;;;;;35.80;20.17;;;;;;;2.11;93.31;101512.82;1784499;80;21290;-76
2021/10/31 02:42:52;;;;;;;37.13;19.20;;;;;;;2.17;93.23;101506.59;1784493;80;21712;-76
2021/10/31 02:45:58;;;;;;;32.45;20.17;;;;;;;2.21;93.09;101505.89;1783242;80;21315;-76
2021/10/31 02:49:05;;;;;;;32.13;18.65;;;;;;;2.22;92.80;101500.42;1783900;80;21331;-76
2021/10/31 02:52:18;;;;;;;35.45;19.00;;;;;;;2.19;92.28;101501.95;1783078;80;21224;-76
2021/10/31 02:55:46;;;;;;;30.70;18.73;;;;;;;2.16;91.79;101496.73;1783575;80;21329;-76
2021/10/31 02:59:01;;;;;;;26.52;16.05;;;;;;;2.14;91.76;101497.31;1771945;80;21291;-75
2021/10/31 03:02:08;;;;;;;36.80;19.42;;;;;;;2.14;91.87;101497.80;1784585;80;22354;-75
2021/10/31 03:05:15;;;;;;;33.92;18.60;;;;;;;2.12;92.01;101495.20;1783295;80;21275;-75
2021/10/31 03:08:20;;;;;;;32.80;17.32;;;;;;;2.15;92.34;101494.13;1784516;80;21886;-75
2021/10/31 03:11:26;;;;;;;26.35;16.55;;;;;;;2.17;92.60;101490.39;1784641;80;21236;-75
2021/10/31 03:14:32;;;;;;;32.93;17.50;;;;;;;2.20;93.01;101490.19;1784583;80;21641;-75
2021/10/31 03:17:37;;;;;;;27.87;17.87;;;;;;;2.28;93.51;101490.59;1784580;80;21357;-76
2021/10/31 03:20:42;;;;;;;33.58;19.60;;;;;;;2.35;93.66;101476.22;1784371;80;21910;-75
2021/10/31 03:23:48;;;;;;;33.92;19.50;;;;;;;2.41;93.57;101483.09;1773167;80;21327;-75
2021/10/31 03:26:56;;;;;;;33.90;17.15;;;;;;;2.44;93.40;101485.09;1771188;81;21173;-75
2021/10/31 03:30:01;;;;;;;42.45;20.62;;;;;;;2.44;92.97;101485.58;1771161;81;21307;-75
2021/10/31 03:33:07;;;;;;;31.97;18.57;;;;;;;2.39;92.58;101482.30;1770939;81;21237;-75
2021/10/31 03:36:13;;;;;;;35.63;17.85;;;;;;;2.37;92.57;101474.80;1770192;81;21327;-75
2021/10/31 03:39:19;;;;;;;34.25;17.12;;;;;;;2.37;92.53;101473.44;1770997;81;21343;-75
2021/10/31 03:42:26;;;;;;;34.38;20.25;;;;;;;2.34;92.46;101469.58;1771050;81;21228;-76
2021/10/31 03:45:31;;;;;;;31.17;19.05;;;;;;;2.32;92.57;101468.33;1770721;81;21252;-76
2021/10/31 03:48:37;;;;;;;28.62;15.60;;;;;;;2.29;92.50;101461.75;1771070;81;21338;-76
2021/10/31 03:51:42;;;;;;;28.73;17.02;;;;;;;2.25;92.35;101465.13;1771116;81;21312;-76
2021/10/31 03:54:47;;;;;;;30.88;18.45;;;;;;;2.23;92.41;101467.06;1771156;81;21204;-76
2021/10/31 03:57:56;;;;;;;28.98;16.87;;;;;;;2.20;92.36;101461.84;1771116;81;21241;-76
2021/10/31 04:01:01;;;;;;;28.38;16.07;;;;;;;2.16;92.33;101458.07;1770347;80;21196;-76
2021/10/31 04:04:08;;;;;;;33.10;21.00;;;;;;;2.12;92.46;101458.77;1771054;81;21831;-76
2021/10/31 04:07:15;;;;;;;36.80;20.15;;;;;;;2.09;92.77;101456.24;1770692;81;21334;-76
2021/10/31 04:10:21;;;;;;;31.52;18.23;;;;;;;2.08;93.09;101449.12;1769696;81;21185;-76
2021/10/31 04:13:27;;;;;;;31.23;16.50;;;;;;;2.12;93.53;101444.38;1771149;81;21296;-76
2021/10/31 04:16:33;;;;;;;35.75;19.90;;;;;;;2.14;93.75;101444.69;1769756;81;21919;-76
2021/10/31 04:19:38;;;;;;;29.87;18.15;;;;;;;2.15;93.80;101439.66;1771052;81;21343;-76
2021/10/31 04:22:44;;;;;;;36.55;19.48;;;;;;;2.17;93.80;101439.59;1770930;81;21196;-76
2021/10/31 04:25:51;;;;;;;39.63;20.52;;;;;;;2.16;93.71;101442.74;1770900;81;21165;-76
2021/10/31 04:28:57;;;;;;;34.92;19.07;;;;;;;2.17;93.60;101440.45;1771092;81;21722;-76
2021/10/31 04:32:03;;;;;;;37.73;20.95;;;;;;;2.16;93.56;101439.17;1769720;81;21220;-76
2021/10/31 04:35:09;;;;;;;35.80;20.95;;;;;;;2.16;93.70;101437.34;1769754;81;21209;-76
2021/10/31 04:38:19;;;;;;;37.95;18.90;;;;;;;2.16;93.64;101433.30;1769448;81;21299;-76
2021/10/31 04:41:24;;;;;;;39.92;20.75;;;;;;;2.17;93.55;101435.54;1771019;81;21311;-76
2021/10/31 04:44:30;;;;;;;34.53;19.77;;;;;;;2.15;93.61;101436.96;1771020;81;21339;-75
2021/10/31 04:47:35;;;;;;;34.55;19.23;;;;;;;2.16;93.71;101438.69;1769707;81;21295;-76
2021/10/31 04:50:41;;;;;;;35.33;20.40;;;;;;;2.16;93.75;101437.34;1770869;81;21224;-76
2021/10/31 04:53:45;;;;;;;34.73;19.25;;;;;;;2.16;93.77;101441.88;1771178;81;21279;-76
2021/10/31 04:56:50;;;;;;;37.55;20.05;;;;;;;2.16;93.74;101445.44;1770576;81;21334;-75
2021/10/31 04:59:56;;;;;;;37.98;20.82;;;;;;;2.16;93.80;101439.17;1770973;80;21189;-75
2021/10/31 05:03:02;;;;;;;41.42;20.20;;;;;;;2.18;93.88;101444.88;1771028;81;21292;-75
2021/10/31 05:06:08;;;;;;;35.35;20.37;;;;;;;2.19;93.82;101438.52;1770476;81;21878;-75
2021/10/31 05:09:13;;;;;;;35.98;20.05;;;;;;;2.20;93.81;101442.94;1771035;81;21811;-76
2021/10/31 05:12:21;;;;;;;41.25;22.95;;;;;;;2.20;93.90;101445.64;1769411;81;21238;-77
2021/10/31 05:15:27;;;;;;;38.63;22.67;;;;;;;2.21;94.03;101444.70;1769634;81;21899;-75
2021/10/31 05:18:32;;;;;;;40.05;23.42;;;;;;;2.23;94.20;101445.47;1771202;81;21303;-75
2021/10/31 05:21:37;;;;;;;40.08;21.37;;;;;;;2.25;94.36;101448.92;1770414;81;21323;-75
2021/10/31 05:24:42;;;;;;;42.70;21.93;;;;;;;2.30;94.50;101442.75;1770703;80;21351;-75
2021/10/31 05:27:48;;;;;;;32.83;18.82;;;;;;;2.37;94.54;101442.39;1762508;81;21339;-75
2021/10/31 05:30:55;;;;;;;36.10;20.65;;;;;;;2.45;94.59;101446.35;1762609;81;21141;-75
2021/10/31 05:34:01;;;;;;;32.42;19.70;;;;;;;2.54;94.59;101442.17;1764132;81;21314;-75
2021/10/31 05:37:09;;;;;;;34.03;20.45;;;;;;;2.63;94.57;101441.59;1763343;81;21879;-76
2021/10/31 05:40:15;;;;;;;40.05;20.52;;;;;;;2.74;94.41;101447.20;1764090;81;21296;-76
2021/10/31 05:43:21;;;;;;;39.23;21.45;;;;;;;2.87;94.21;101450.44;1764261;81;21191;-76
2021/10/31 05:46:27;;;;;;;38.98;21.37;;;;;;;2.98;93.85;101446.58;1764097;81;21836;-76
2021/10/31 05:49:33;;;;;;;35.70;20.43;;;;;;;3.09;93.42;101450.78;1764039;81;21820;-76
2021/10/31 05:52:39;;;;;;;33.53;20.45;;;;;;;3.19;93.00;101445.64;1763190;81;21339;-76
2021/10/31 05:55:44;;;;;;;32.25;18.45;;;;;;;3.29;92.65;101437.30;1764140;81;21906;-76
2021/10/31 05:58:50;;;;;;;31.07;18.32;;;;;;;3.39;92.19;101448.36;1762708;81;21728;-76
2021/10/31 06:01:56;;;;;;;31.77;17.50;;;;;;;3.49;91.85;101448.16;1764382;81;21251;-76
2021/10/31 06:05:02;;;;;;;40.25;19.67;;;;;;;3.57;91.52;101452.55;1763981;81;21292;-76
2021/10/31 06:08:13;;;;;;;31.45;17.82;;;;;;;3.66;91.04;101445.16;1762925;81;21264;-76
2021/10/31 06:11:16;;;;;;;36.45;19.55;;;;;;;3.75;90.47;101433.70;1764139;81;21185;-76
2021/10/31 06:14:25;;;;;;;34.50;18.87;;;;;;;3.85;89.81;101448.34;1762661;81;21237;-76
2021/10/31 06:17:30;;;;;;;32.73;18.15;;;;;;;3.92;89.29;101443.38;1763775;81;21394;-76
2021/10/31 06:20:37;;;;;;;30.25;17.55;;;;;;;3.97;88.56;101443.94;1764044;81;21906;-77
2021/10/31 06:23:42;;;;;;;33.75;16.77;;;;;;;4.06;88.29;101445.14;1762707;81;21366;-76
2021/10/31 06:26:48;;;;;;;33.05;18.17;;;;;;;4.14;87.99;101444.58;1766546;81;21331;-76
2021/10/31 06:29:54;;;;;;;25.20;16.73;;;;;;;4.24;87.54;101447.05;1771097;81;21192;-76
2021/10/31 06:33:00;;;;;;;29.90;16.70;;;;;;;4.32;87.37;101444.64;1770987;81;21917;-76
2021/10/31 06:36:06;;;;;;;28.27;16.02;;;;;;;4.42;87.00;101443.50;1771138;81;21157;-76
2021/10/31 06:39:12;;;;;;;32.67;17.37;;;;;;;4.53;86.58;101451.75;1769587;81;21339;-76
2021/10/31 06:42:18;;;;;;;27.60;17.10;;;;;;;4.63;86.02;101448.75;1769731;81;21637;-76
2021/10/31 06:45:23;;;;;;;31.05;17.27;;;;;;;4.73;85.72;101440.33;1769690;81;21295;-76
2021/10/31 06:48:29;;;;;;;25.70;17.23;;;;;;;4.83;85.31;101439.17;1770659;81;22004;-76
2021/10/31 06:51:34;;;;;;;26.45;15.40;;;;;;;4.93;85.11;101443.44;1771278;81;21299;-76
2021/10/31 06:54:39;;;;;;;28.98;16.10;;;;;;;5.05;84.68;101441.19;1771149;81;21827;-76
2021/10/31 06:57:47;;;;;;;27.82;16.48;;;;;;;5.17;84.61;101449.75;1771125;81;21188;-76
2021/10/31 07:00:53;;;;;;;31.40;16.60;;;;;;;5.30;84.00;101436.15;1770631;80;21899;-76
2021/10/31 07:03:59;;;;;;;24.40;14.50;;;;;;;5.44;83.33;101441.89;1771141;81;21181;-76
2021/10/31 07:07:04;;;;;;;24.35;14.60;;;;;;;5.54;83.10;101445.64;1770979;81;21303;-76
2021/10/31 07:10:03;;;;;;;28.83;15.10;;;;;;;5.63;82.22;101439.52;1770749;81;21225;-76
2021/10/31 07:13:08;;;;;;;27.05;15.78;;;;;;;5.71;81.98;101441.16;1771013;81;21188;-76
2021/10/31 07:16:14;;;;;;;30.85;15.60;;;;;;;5.79;81.45;101442.80;1771143;81;21335;-76
2021/10/31 07:19:19;;;;;;;27.27;14.28;;;;;;;5.85;80.98;101431.46;1770308;81;21656;-76
2021/10/31 07:22:24;;;;;;;26.90;14.90;;;;;;;5.91;80.71;101431.47;1771116;81;21350;-76
2021/10/31 07:25:31;;;;;;;21.15;13.50;;;;;;;6.01;80.90;101424.86;1771108;81;21335;-76
2021/10/31 07:28:37;;;;;;;25.68;14.68;;;;;;;6.12;80.38;101424.91;1768645;80;21323;-76
2021/10/31 07:31:45;;;;;;;23.35;14.20;;;;;;;6.23;80.40;101424.91;1771100;81;21311;-76
2021/10/31 07:34:50;;;;;;;21.75;13.22;;;;;;;6.38;80.62;101426.91;1771094;81;21188;-76
2021/10/31 07:37:56;;;;;;;23.70;13.60;;;;;;;6.55;80.10;101425.57;1771120;81;21824;-76
2021/10/31 07:41:02;;;;;;;23.22;12.43;;;;;;;6.73;79.67;101420.01;1770997;81;21192;-76
2021/10/31 07:44:08;;;;;;;18.62;11.35;;;;;;;6.93;78.62;101433.33;1771099;81;21371;-76
2021/10/31 07:47:15;;;;;;;15.58;11.10;;;;;;;7.12;78.01;101426.75;1771120;81;21946;-76
2021/10/31 07:50:21;;;;;;;17.55;10.65;;;;;;;7.27;77.00;101425.96;1769917;81;21354;-76
2021/10/31 07:53:27;;;;;;;21.35;11.33;;;;;;;7.41;76.60;101423.45;1770981;81;21322;-76
2021/10/31 07:56:35;;;;;;;21.73;11.03;;;;;;;7.55;76.03;101419.06;1770955;81;21165;-76
2021/10/31 07:59:40;;;;;;;24.37;12.25;;;;;;;7.72;75.30;101421.73;1770276;80;21350;-76
2021/10/31 08:02:45;;;;;;;17.15;10.98;;;;;;;7.87;74.42;101422.27;1771103;81;21295;-76
2021/10/31 08:05:53;;;;;;;18.73;12.03;;;;;;;8.00;74.34;101420.22;1771128;81;21315;-76
2021/10/31 08:09:00;;;;;;;21.50;10.68;;;;;;;8.17;73.48;101404.61;1770855;81;21228;-76
2021/10/31 08:12:05;;;;;;;17.52;11.12;;;;;;;8.31;72.72;101421.12;1769496;81;21246;-76
2021/10/31 08:15:10;;;;;;;20.15;11.25;;;;;;;8.38;71.89;101423.72;1770989;81;21588;-76
2021/10/31 08:18:16;;;;;;;16.12;9.60;;;;;;;8.44;71.74;101417.72;1771163;81;21803;-76
2021/10/31 08:21:25;;;;;;;16.95;9.88;;;;;;;8.55;70.87;101411.30;1771034;81;21304;-76
2021/10/31 08:24:30;;;;;;;17.95;10.70;;;;;;;8.69;70.22;101408.70;1769932;81;21338;-76
2021/10/31 08:27:37;;;;;;;19.12;10.55;;;;;;;8.80;69.80;101400.91;1769597;81;21314;-76
2021/10/31 08:30:45;;;;;;;20.95;9.73;;;;;;;8.86;69.21;101397.15;1769672;81;21709;-76
2021/10/31 08:33:55;;;;;;;18.80;10.30;;;;;;;8.93;68.91;101391.98;1769589;81;21350;-76
2021/10/31 08:36:56;;;;;;;15.43;8.75;;;;;;;9.05;67.93;101391.39;1771356;81;21189;-76
2021/10/31 08:40:02;;;;;;;18.92;10.18;;;;;;;9.13;67.97;101386.09;1769601;81;21335;-76
2021/10/31 08:43:07;;;;;;;21.65;10.75;;;;;;;9.20;67.18;101384.52;1769638;81;21315;-76
2021/10/31 08:46:13;;;;;;;18.07;10.60;;;;;;;9.22;67.49;101368.84;1771067;81;21299;-76
2021/10/31 08:49:19;;;;;;;17.23;10.58;;;;;;;9.31;67.29;101370.72;1771059;81;21902;-75
2021/10/31 08:52:28;;;;;;;23.85;10.35;;;;;;;9.36;67.18;101365.72;1769619;81;21240;-75
2021/10/31 08:55:32;;;;;;;15.75;10.03;;;;;;;9.44;66.45;101367.72;1770285;81;21386;-75
2021/10/31 08:58:38;;;;;;;19.92;10.28;;;;;;;9.42;66.25;101354.22;1771087;81;21208;-75
2021/10/31 09:01:42;;;;;;;22.75;10.95;;;;;;;9.45;65.93;101355.27;1769324;80;21347;-75
2021/10/31 09:04:48;;;;;;;16.48;10.10;;;;;;;9.44;66.03;101343.14;1771025;81;21878;-75
2021/10/31 09:07:54;;;;;;;16.67;9.40;;;;;;;9.47;66.10;101346.95;1771026;81;21350;-75
2021/10/31 09:11:01;;;;;;;16.87;9.68;;;;;;;9.53;66.17;101333.22;1769602;81;21201;-75
2021/10/31 09:14:06;;;;;;;20.48;9.60;;;;;;;9.60;65.86;101338.48;1769676;81;21338;-75
2021/10/31 09:17:12;;;;;;;18.40;9.83;;;;;;;9.70;65.35;101337.96;1769297;81;21180;-75
2021/10/31 09:20:19;;;;;;;17.23;9.75;;;;;;;9.71;65.04;101348.73;1769397;81;21244;-76
2021/10/31 09:23:25;;;;;;;18.73;9.18;;;;;;;9.73;64.98;101332.19;1771168;81;21836;-75
2021/10/31 09:26:30;;;;;;;17.77;9.73;;;;;;;9.76;64.98;101327.80;1769734;81;21315;-75
2021/10/31 09:29:36;;;;;;;14.23;9.48;;;;;;;9.84;64.83;101317.52;1769481;81;21318;-75
2021/10/31 09:32:48;;;;;;;16.17;9.95;;;;;;;9.93;64.74;101320.73;1771021;81;21180;-75
2021/10/31 09:35:57;;;;;;;15.30;9.48;;;;;;;10.03;64.35;101316.10;1771402;81;21371;-75
2021/10/31 09:39:03;;;;;;;14.65;9.23;;;;;;;10.11;63.52;101301.67;1771058;81;21295;-75
2021/10/31 09:42:10;;;;;;;13.68;7.50;;;;;;;10.15;63.37;101291.66;1769560;81;21324;-76
2021/10/31 09:45:16;;;;;;;14.15;9.03;;;;;;;10.17;63.39;101296.48;1769448;81;21751;-76
2021/10/31 09:48:21;;;;;;;22.35;9.45;;;;;;;10.24;63.18;101288.56;1772006;81;21821;-76
2021/10/31 09:51:29;;;;;;;16.42;9.05;;;;;;;10.34;62.92;101288.01;1770333;81;21351;-76
2021/10/31 09:54:34;;;;;;;13.93;9.73;;;;;;;10.47;62.30;101276.22;1770914;81;21593;-76
2021/10/31 09:57:41;;;;;;;15.08;9.30;;;;;;;10.55;62.03;101282.30;1770962;81;21712;-76
2021/10/31 10:00:57;;;;;;;15.03;8.45;;;;;;;10.62;61.79;101281.17;1770381;80;21213;-76
2021/10/31 10:04:03;;;;;;;12.00;8.03;;;;;;;10.68;61.41;101273.71;1771384;81;21859;-76
2021/10/31 10:07:12;;;;;;;14.23;9.30;;;;;;;10.75;61.24;101275.69;1769377;81;21192;-76
2021/10/31 10:10:20;;;;;;;14.98;8.30;;;;;;;10.86;60.76;101265.53;1771129;81;21314;-76
2021/10/31 10:13:34;;;;;;;15.80;9.10;;;;;;;10.89;60.61;101260.61;1771142;81;21354;-76
2021/10/31 10:16:39;;;;;;;11.65;8.40;;;;;;;10.95;60.36;101257.25;1771786;81;21315;-76
2021/10/31 10:20:00;;;;;;;16.07;8.00;;;;;;;10.98;59.99;101254.21;1771034;81;21196;-76
2021/10/31 10:23:19;;;;;;;12.37;7.70;;;;;;;11.00;59.94;101245.31;1771142;81;21287;-76
2021/10/31 10:26:40;;;;;;;10.80;7.42;;;;;;;11.03;59.68;101241.94;1769978;81;21216;-76
2021/10/31 10:29:50;;;;;;;19.82;9.43;;;;;;;11.09;60.07;101242.16;1771007;81;21303;-76
2021/10/31 10:33:05;;;;;;;13.50;8.48;;;;;;;11.20;59.15;101243.81;1770289;81;21172;-76
2021/10/31 10:36:23;;;;;;;13.20;7.75;;;;;;;11.26;58.75;101228.11;1771004;81;21303;-76
2021/10/31 10:39:28;;;;;;;12.35;7.83;;;;;;;11.27;58.74;101229.83;1771594;81;21229;-76
2021/10/31 10:42:36;;;;;;;13.03;9.05;;;;;;;11.30;58.62;101223.19;1770013;81;21393;-76
2021/10/31 10:45:42;;;;;;;12.90;7.80;;;;;;;11.32;58.18;101215.66;1771107;81;21292;-76
2021/10/31 10:49:05;;;;;;;13.10;7.60;;;;;;;11.32;58.23;101211.55;1769533;81;21311;-76
2021/10/31 10:52:30;;;;;;;11.73;7.45;;;;;;;11.37;58.41;101208.67;1770342;81;21303;-76
2021/10/31 10:55:44;;;;;;;15.00;7.92;;;;;;;11.43;57.96;101209.42;1771161;81;21356;-76
2021/10/31 10:59:00;;;;;;;13.15;8.23;;;;;;;11.49;57.98;101199.19;1770940;81;21866;-76
2021/10/31 11:02:22;;;;;;;11.65;7.80;;;;;;;11.55;57.35;101189.45;1770183;81;21343;-76
2021/10/31 11:05:28;;;;;;;12.60;7.35;;;;;;;11.60;57.41;101193.94;1771181;81;21890;-76
2021/10/31 11:08:33;;;;;;;13.20;8.00;;;;;;;11.68;56.56;101186.29;1769567;81;21291;-76
2021/10/31 11:11:39;;;;;;;15.98;7.67;;;;;;;11.73;56.35;101198.48;1769527;81;21977;-76
2021/10/31 11:14:45;;;;;;;11.33;7.28;;;;;;;11.72;56.29;101181.69;1768988;81;21315;-76
2021/10/31 11:17:52;;;;;;;13.08;7.75;;;;;;;11.71;56.32;101183.20;1752213;81;21184;-76
2021/10/31 11:20:57;;;;;;;11.25;7.75;;;;;;;11.71;56.04;101168.13;1770767;81;21205;-76
2021/10/31 11:24:06;;;;;;;12.18;7.17;;;;;;;11.70;56.30;101180.12;1770731;81;21326;-76
2021/10/31 11:27:12;;;;;;;10.80;7.20;;;;;;;11.71;56.25;101177.72;1770443;81;21926;-76
2021/10/31 11:30:17;;;;;;;9.63;6.58;;;;;;;11.68;56.25;101179.44;1767488;79;21177;-76
2021/10/31 11:33:24;;;;;;;9.03;6.65;;;;;;;11.66;56.49;101174.61;1776055;80;21243;-76
2021/10/31 11:36:30;;;;;;;11.90;7.17;;;;;;;11.70;56.43;101174.64;1808265;79;21337;-76
2021/10/31 11:39:35;;;;;;;8.98;6.67;;;;;;;11.73;56.14;101171.58;1812815;79;21313;-76
2021/10/31 11:42:52;;;;;;;13.48;7.20;;;;;;;11.73;56.18;101171.07;1813080;79;21700;-76
2021/10/31 11:46:00;;;;;;;12.70;6.87;;;;;;;11.77;56.19;101164.76;1814020;79;21358;-76
2021/10/31 11:49:09;;;;;;;11.53;6.75;;;;;;;11.82;56.42;101159.67;1814375;79;21286;-76
2021/10/31 11:52:14;;;;;;;10.28;7.28;;;;;;;11.87;55.95;101153.70;1813815;79;21299;-76
2021/10/31 11:55:46;;;;;;;13.43;7.78;;;;;;;11.93;55.61;101153.03;1790958;79;21769;-76
2021/10/31 11:58:54;;;;;;;9.23;6.58;;;;;;;11.94;55.68;101148.75;1814696;79;21902;-76
2021/10/31 12:02:02;;;;;;;8.80;6.55;;;;;;;11.94;55.69;101146.00;1814473;79;21326;-76
2021/10/31 12:05:19;;;;;;;9.38;5.90;;;;;;;11.96;55.63;101141.23;1812514;79;21879;-76
2021/10/31 12:08:25;;;;;;;10.82;6.05;;;;;;;11.98;55.55;101143.80;1814032;79;21771;-76
2021/10/31 12:11:43;;;;;;;15.53;6.67;;;;;;;12.02;55.39;101128.22;1798610;79;21296;-76
2021/10/31 12:14:55;;;;;;;10.10;6.40;;;;;;;12.03;55.65;101127.70;1710790;83;21204;-75
2021/10/31 12:18:13;;;;;;;11.28;6.45;;;;;;;12.07;55.33;101121.39;1713264;84;21383;-75
2021/10/31 12:21:36;;;;;;;10.78;7.12;;;;;;;12.08;55.19;101112.13;1712558;84;21879;-76
2021/10/31 12:24:48;;;;;;;15.35;6.37;;;;;;;12.05;55.06;101109.22;1712499;84;21372;-75
2021/10/31 12:27:57;;;;;;;11.28;5.78;;;;;;;12.10;54.99;101105.47;1711365;84;21874;-75
2021/10/31 12:31:06;;;;;;;9.10;5.67;;;;;;;12.14;55.04;101108.70;1731245;81;21188;-75
2021/10/31 12:34:21;;;;;;;9.48;5.75;;;;;;;12.16;54.98;101105.30;1722678;82;21364;-76
2021/10/31 12:37:36;;;;;;;12.88;6.25;;;;;;;12.15;54.88;101107.19;1747195;82;21301;-78
2021/10/31 12:40:42;;;;;;;11.95;6.97;;;;;;;12.17;54.94;101105.13;1765762;80;21296;-77
2021/10/31 12:43:59;;;;;;;12.33;7.83;;;;;;;12.21;54.63;101110.63;1766163;80;21263;-77
2021/10/31 12:47:15;;;;;;;10.95;6.58;;;;;;;12.23;54.29;101102.22;1779123;80;21290;-76
2021/10/31 12:50:31;;;;;;;11.15;6.55;;;;;;;12.23;54.01;101095.36;1765828;80;21892;-75
2021/10/31 12:53:37;;;;;;;20.82;6.95;;;;;;;12.22;54.09;101075.83;1764657;81;21312;-75
2021/10/31 12:56:43;;;;;;;15.80;7.95;;;;;;;12.20;54.20;101091.61;1725453;81;21852;-75
2021/10/31 12:59:54;;;;;;;11.38;6.40;;;;;;;12.18;53.96;101089.53;1763921;81;21326;-75
2021/10/31 13:03:04;;;;;;;9.93;6.60;;;;;;;12.16;54.12;101095.70;1743668;82;21315;-75
2021/10/31 13:06:09;;;;;;;;;;;;;;;12.14;54.22;101095.00;1746215;82;21946;-75
2021/10/31 13:09:15;;;;;;;14.15;8.10;;;;;;;12.12;54.24;101101.17;1743748;82;20212;-75
2021/10/31 13:12:36;;;;;;;15.43;10.53;;;;;;;12.08;54.46;101106.64;1741459;82;21944;-75
2021/10/31 13:15:43;;;;;;;18.87;9.70;;;;;;;12.05;54.39;101102.38;1723110;83;21334;-75
2021/10/31 13:18:47;;;;;;;18.95;9.50;;;;;;;12.02;54.49;101105.44;1724035;83;21767;-75
2021/10/31 13:21:59;;;;;;;14.90;9.18;;;;;;;11.97;54.73;101096.34;1723909;83;21858;-75
2021/10/31 13:25:02;;;;;;;14.63;9.15;;;;;;;11.92;54.93;101093.23;1722077;83;21244;-75
2021/10/31 13:28:07;;;;;;;14.25;7.22;;;;;;;11.87;55.14;101099.73;1723834;83;21255;-75
2021/10/31 13:31:24;;;;;;;14.18;7.20;;;;;;;11.84;55.18;101096.45;1722495;83;21890;-75
2021/10/31 13:34:29;;;;;;;15.83;7.47;;;;;;;11.77;55.41;101094.87;1717393;83;21403;-76
2021/10/31 13:37:35;;;;;;;15.78;7.72;;;;;;;11.70;55.75;101092.42;1715658;83;21308;-75
2021/10/31 13:40:40;;;;;;;10.90;6.58;;;;;;;11.64;55.90;101093.09;1716266;83;21209;-76
2021/10/31 13:43:47;;;;;;;10.93;6.92;;;;;;;11.58;56.04;101085.02;1714284;83;21339;-76
2021/10/31 13:46:59;;;;;;;13.40;6.30;;;;;;;11.56;56.11;101084.83;1714365;83;21375;-75
2021/10/31 13:50:08;;;;;;;15.58;7.20;;;;;;;11.51;56.16;101085.31;1705510;83;21896;-75
2021/10/31 13:53:13;;;;;;;19.80;8.35;;;;;;;11.46;56.23;101089.91;1716286;83;21201;-75
2021/10/31 13:56:19;;;;;;;11.22;7.37;;;;;;;11.41;56.34;101090.92;1715443;83;21844;-76
2021/10/31 13:59:34;;;;;;;16.12;8.15;;;;;;;11.35;56.47;101087.98;1715411;83;21319;-76
2021/10/31 14:02:40;;;;;;;16.60;8.53;;;;;;;11.25;56.80;101086.21;1715696;83;21315;-75
2021/10/31 14:05:47;;;;;;;13.13;7.17;;;;;;;11.18;57.10;101088.37;1692799;83;21744;-75
2021/10/31 14:08:52;;;;;;;9.13;6.72;;;;;;;11.11;57.19;101081.84;1715663;83;21277;-75
2021/10/31 14:12:10;;;;;;;9.85;5.33;;;;;;;11.02;57.34;101085.55;1714183;83;21205;-75
2021/10/31 14:15:23;;;;;;;16.12;7.72;;;;;;;10.91;57.58;101083.91;1714766;83;21229;-75
2021/10/31 14:18:29;;;;;;;12.95;7.42;;;;;;;10.81;57.88;101075.80;1715774;83;21857;-75
2021/10/31 14:21:35;;;;;;;10.70;6.80;;;;;;;10.73;58.09;101080.72;1715912;83;21198;-75
2021/10/31 14:24:40;;;;;;;11.53;6.90;;;;;;;10.65;58.26;101078.41;1715352;83;21339;-75
2021/10/31 14:27:46;;;;;;;12.23;7.30;;;;;;;10.53;58.54;101078.30;1715762;83;21319;-74
2021/10/31 14:31:13;;;;;;;13.85;7.62;;;;;;;10.43;58.69;101073.77;1715037;83;21393;-75